Main page
METAR-TAF:

METAR-TAF

Airports :

Kota Airport

Kota, India

latitude: 25-09-36N, longitude: 075-50-44E, elevation: 273 m

METAR: missing

Time: 02:20 (20:50 UTC)

Forecast

The report was made 21 hours and 50 minutes ago, at 23:00 UTC
Forecast valid from 10 at 00 UTC to 10 at 09 UTC
Wind 3 kt from variable directions
Visibility: 3000 m
Few clouds at a height of 10000 ft
haze
Becoming
from 10 at 04 UTC to 10 at 06 UTC
Wind 8 kt from the West/Southwest
Visibility: 5000 m
Scattered clouds at a height of 3000 ft
haze

TAF: VIKO 092300Z 1000/1009 VRB03KT 3000 HZ FEW100 BECMG 1004/1006 25008KT 5000 HZ SCT030

Weather observations and forecasts of more than 4000 airports (METAR and TAF reports).

The available stations are represented by yellow and red dots on the map.

Hover mouse over dot to see the name of the station.

Then click to see weather observations and forecasts.

To change the map : click on the green buttons with a black cross to zoom in, on the green button with a dash to zoom out, or on the green arrows for adjacent maps.


METAR-TAF: